Time;durP1;ratioP1;P1;durP2;ratioP2;P2;SDS_P1;SDS_P2;PMS_P1;PMS_P2;Temp;Humidity;BMP_temperature;BMP_pressure;BME280_temperature;BME280_humidity;BME280_pressure;Samples;Min_cycle;Max_cycle;Signal;HPM_P1;HPM_P2
2022/03/12 00:00:19;;;;;;;20.47;8.47;;;;;;;10.91;62.79;100434.09;5053067;28;20095;-75
2022/03/12 00:02:46;;;;;;;18.97;5.83;;;;;;;10.94;62.70;100436.31;5038065;28;20106;-75
2022/03/12 00:05:13;;;;;;;16.17;8.43;;;;;;;10.64;62.83;100390.59;5055147;28;20144;-76
2022/03/12 00:07:41;;;;;;;17.63;7.97;;;;;;;10.94;62.80;100433.50;5053733;28;20068;-71
2022/03/12 00:10:12;;;;;;;18.20;6.47;;;;;;;10.83;62.72;100412.31;5054914;28;20041;-70
2022/03/12 00:12:41;;;;;;;15.67;4.53;;;;;;;10.29;62.61;100312.53;5047479;28;20045;-74
2022/03/12 00:15:10;;;;;;;18.90;7.90;;;;;;;10.75;62.56;100382.19;5048131;28;20076;-73
2022/03/12 00:17:45;;;;;;;7.03;3.53;;;;;;;10.95;62.79;100417.56;5045131;28;20076;-72
2022/03/12 00:20:16;;;;;;;22.63;7.20;;;;;;;10.80;62.65;100402.56;5039238;28;20081;-73
2022/03/12 00:22:47;;;;;;;7.73;4.07;;;;;;;11.01;62.45;100417.28;5054582;28;20044;-73
2022/03/12 00:25:18;;;;;;;8.00;2.57;;;;;;;10.91;62.70;100406.97;5049969;28;20100;-75
2022/03/12 00:27:45;;;;;;;15.80;6.93;;;;;;;11.00;62.71;100400.78;5054541;28;20053;-77
2022/03/12 00:30:17;;;;;;;11.80;3.73;;;;;;;10.51;62.24;100315.81;5038767;28;20080;-76
2022/03/12 00:32:45;;;;;;;10.73;5.07;;;;;;;10.28;62.60;100286.59;5046513;28;20122;-77
2022/03/12 00:35:14;;;;;;;22.87;5.77;;;;;;;11.02;62.42;100413.34;5050332;28;20068;-75
2022/03/12 00:37:42;;;;;;;23.67;6.53;;;;;;;10.97;62.27;100418.09;5031386;28;20507;-74
2022/03/12 00:40:09;;;;;;;22.67;8.50;;;;;;;10.96;62.42;100403.31;5049636;28;20107;-73
2022/03/12 00:42:36;;;;;;;21.90;6.90;;;;;;;10.96;62.45;100408.91;5054932;28;20085;-73
2022/03/12 00:45:04;;;;;;;15.07;5.23;;;;;;;10.95;62.29;100392.44;5054296;28;20119;-73
2022/03/12 00:47:31;;;;;;;13.53;4.77;;;;;;;10.59;62.63;100354.31;5047353;28;20048;-73
2022/03/12 00:49:59;;;;;;;8.60;4.53;;;;;;;10.68;62.63;100386.13;5043284;28;20127;-73
2022/03/12 00:52:25;;;;;;;6.33;3.13;;;;;;;10.66;62.75;100393.94;5044691;28;20052;-74
2022/03/12 00:54:52;;;;;;;21.43;5.50;;;;;;;10.55;63.09;100385.88;5053449;28;20049;-71
2022/03/12 00:57:19;;;;;;;8.97;3.47;;;;;;;9.90;62.94;100283.34;5068829;28;20045;-72
2022/03/12 00:59:46;;;;;;;4.77;2.50;;;;;;;10.52;63.20;100380.88;5068386;28;20055;-70
2022/03/12 01:02:16;;;;;;;6.37;4.00;;;;;;;10.51;63.27;100384.78;5057137;28;20052;-72
2022/03/12 01:04:44;;;;;;;6.18;2.97;;;;;;;10.46;63.54;100374.47;5050868;28;20045;-70
2022/03/12 01:07:12;;;;;;;9.67;4.13;;;;;;;10.52;63.18;100381.69;5047089;28;20098;-72
2022/03/12 01:09:39;;;;;;;8.03;3.57;;;;;;;10.52;63.32;100392.88;5044455;28;20049;-73
2022/03/12 01:12:08;;;;;;;10.83;4.77;;;;;;;10.49;63.40;100399.00;5052344;28;20041;-70
2022/03/12 01:14:38;;;;;;;13.67;4.80;;;;;;;10.37;63.29;100384.56;5052722;28;20053;-71
2022/03/12 01:17:06;;;;;;;12.60;4.32;;;;;;;10.35;63.50;100392.38;5052620;28;20045;-72
2022/03/12 01:19:38;;;;;;;10.13;5.50;;;;;;;10.33;63.11;100363.91;5042258;28;20567;-71
2022/03/12 01:22:06;;;;;;;3.73;2.90;;;;;;;10.03;63.43;100318.19;5050741;28;20092;-71
2022/03/12 01:24:34;;;;;;;10.40;2.57;;;;;;;10.36;63.50;100394.88;5053623;28;20083;-71
2022/03/12 01:27:01;;;;;;;8.40;3.20;;;;;;;10.40;63.78;100379.25;5049101;28;20084;-71
2022/03/12 01:29:28;;;;;;;17.13;3.63;;;;;;;10.00;63.73;100318.75;5047013;28;20049;-71
2022/03/12 01:31:55;;;;;;;9.53;3.33;;;;;;;10.00;63.61;100307.59;5047081;28;20097;-70
2022/03/12 01:34:22;;;;;;;7.67;3.20;;;;;;;9.85;64.12;100316.00;5047360;28;20489;-70
2022/03/12 01:36:49;;;;;;;5.87;3.67;;;;;;;9.82;64.36;100316.56;5058711;28;20067;-70
2022/03/12 01:39:16;;;;;;;7.27;3.00;;;;;;;9.29;64.91;100243.56;5049388;28;20440;-70
2022/03/12 01:41:43;;;;;;;10.53;3.90;;;;;;;9.81;65.43;100356.72;5047455;28;20176;-70
2022/03/12 01:44:14;;;;;;;3.37;2.93;;;;;;;9.81;65.38;100353.91;5049207;28;20098;-70
2022/03/12 01:46:43;;;;;;;5.43;2.33;;;;;;;9.91;65.16;100349.19;5044137;28;20080;-70
2022/03/12 01:49:14;;;;;;;12.63;4.00;;;;;;;9.50;65.47;100284.25;5044030;28;20084;-69
2022/03/12 01:51:43;;;;;;;5.93;2.47;;;;;;;9.81;65.67;100329.69;5050759;28;20102;-69
2022/03/12 01:54:11;;;;;;;4.97;2.78;;;;;;;9.71;66.25;100319.38;5052100;28;20083;-69
2022/03/12 01:56:41;;;;;;;8.67;3.27;;;;;;;9.77;66.19;100320.19;5034546;28;20075;-69
2022/03/12 01:59:08;;;;;;;6.82;3.38;;;;;;;9.72;66.25;100321.03;5034661;28;20057;-72
2022/03/12 02:01:35;;;;;;;8.47;4.13;;;;;;;9.78;66.16;100309.84;5039384;28;20420;-73
2022/03/12 02:04:05;;;;;;;19.20;4.00;;;;;;;9.65;65.48;100266.69;5050781;28;20522;-73
2022/03/12 02:06:32;;;;;;;18.05;5.68;;;;;;;9.94;65.75;100319.88;5048172;28;20041;-73
2022/03/12 02:08:59;;;;;;;9.70;3.80;;;;;;;9.54;65.53;100254.72;5048369;28;20057;-73
2022/03/12 02:11:32;;;;;;;16.03;4.73;;;;;;;9.83;65.57;100301.50;5039329;28;20084;-70
2022/03/12 02:14:15;;;;;;;10.50;3.17;;;;;;;9.85;65.82;100305.69;5046451;28;20494;-70
2022/03/12 02:16:48;;;;;;;12.50;4.10;;;;;;;9.86;65.80;100312.91;5038459;28;20076;-72
2022/03/12 02:19:17;;;;;;;4.10;1.93;;;;;;;9.78;65.74;100293.97;5043844;28;20103;-73
2022/03/12 02:21:50;;;;;;;6.43;2.50;;;;;;;9.85;65.98;100308.47;5045514;28;20076;-71
2022/03/12 02:24:18;;;;;;;2.03;1.53;;;;;;;9.93;65.77;100312.63;5046169;28;20114;-71
2022/03/12 02:26:45;;;;;;;6.37;2.57;;;;;;;9.71;65.90;100277.53;5042073;28;20527;-70
2022/03/12 02:29:18;;;;;;;10.33;2.70;;;;;;;9.71;65.85;100288.69;5049915;28;20041;-70
2022/03/12 02:31:48;;;;;;;14.83;4.07;;;;;;;9.90;65.72;100296.47;5049599;28;20076;-72
2022/03/12 02:34:22;;;;;;;9.50;2.95;;;;;;;9.83;66.19;100312.66;5049141;28;20053;-71
2022/03/12 02:36:52;;;;;;;4.17;1.90;;;;;;;9.89;65.96;100306.78;5048097;28;20094;-72
2022/03/12 02:39:21;;;;;;;3.27;1.90;;;;;;;9.29;65.62;100202.59;5031224;28;20080;-71
2022/03/12 02:41:49;;;;;;;6.57;2.50;;;;;;;10.04;65.70;100322.63;5042922;28;20520;-71
2022/03/12 02:44:20;;;;;;;10.80;2.47;;;;;;;10.12;65.30;100310.06;5048210;28;20126;-71
2022/03/12 02:47:22;;;;;;;7.90;2.87;;;;;;;10.03;65.35;100304.25;5049859;28;20491;-72
2022/03/12 02:49:53;;;;;;;7.17;3.47;;;;;;;9.83;65.78;100284.75;5033849;28;20057;-71
2022/03/12 02:52:21;;;;;;;9.53;2.37;;;;;;;10.00;65.67;100295.59;5051748;28;20060;-72
2022/03/12 02:54:50;;;;;;;2.27;1.17;;;;;;;9.96;65.75;100295.34;5046751;28;20045;-73
2022/03/12 02:57:20;;;;;;;5.57;2.80;;;;;;;9.96;66.00;100293.38;5048099;28;20238;-69
2022/03/12 02:59:48;;;;;;;7.82;2.30;;;;;;;9.84;66.01;100270.53;5048892;28;20053;-73
2022/03/12 03:02:14;;;;;;;7.73;2.90;;;;;;;9.75;65.64;100240.72;5042764;28;20087;-72
2022/03/12 03:04:42;;;;;;;5.23;2.97;;;;;;;10.09;65.66;100286.38;5046443;28;20080;-71
2022/03/12 03:07:11;;;;;;;9.90;2.40;;;;;;;10.12;65.61;100274.66;5040986;28;20068;-70
2022/03/12 03:09:38;;;;;;;4.03;2.10;;;;;;;10.05;65.51;100270.47;5042998;28;20096;-72
2022/03/12 03:12:09;;;;;;;12.27;2.47;;;;;;;9.94;65.66;100241.78;5046218;28;20041;-71
2022/03/12 03:14:41;;;;;;;;;;;;;;;9.96;65.71;100267.44;5053611;28;20060;-72
2022/03/12 03:17:11;;;;;;;4.90;1.50;;;;;;;10.01;65.94;100273.00;5049293;28;20415;-73
2022/03/12 03:19:41;;;;;;;8.55;3.17;;;;;;;9.94;65.90;100258.50;5052744;28;20512;-72
2022/03/12 03:22:11;;;;;;;10.10;3.20;;;;;;;10.12;65.55;100259.84;5048199;28;20130;-71
2022/03/12 03:24:38;;;;;;;22.27;3.85;;;;;;;10.10;65.50;100262.91;5072029;28;20047;-69
2022/03/12 03:27:05;;;;;;;5.40;2.80;;;;;;;10.12;65.52;100252.31;5075370;28;20063;-70
2022/03/12 03:29:36;;;;;;;30.57;3.97;;;;;;;9.87;65.46;100218.94;5074929;28;20029;-71
2022/03/12 03:32:03;;;;;;;;;;;;;;;9.98;65.73;100237.28;5070285;28;20033;-71
2022/03/12 03:34:31;;;;;;;4.87;1.70;;;;;;;9.83;65.95;100217.81;5063661;28;19915;-71
2022/03/12 03:36:59;;;;;;;6.40;2.90;;;;;;;10.01;65.79;100224.72;5071760;28;20046;-71
2022/03/12 03:39:26;;;;;;;4.60;2.80;;;;;;;10.00;65.82;100211.91;5073066;28;20029;-73
2022/03/12 03:41:53;;;;;;;7.67;2.87;;;;;;;9.98;66.05;100206.59;5069728;28;20025;-72
2022/03/12 03:44:28;;;;;;;4.60;1.90;;;;;;;9.92;66.41;100203.00;5080089;28;20029;-72
2022/03/12 03:46:56;;;;;;;4.87;2.80;;;;;;;9.16;66.34;100087.03;5061639;28;20045;-71
2022/03/12 03:49:24;;;;;;;6.83;2.23;;;;;;;9.90;66.69;100212.78;5050200;28;20081;-71
2022/03/12 03:51:53;;;;;;;6.87;2.93;;;;;;;9.89;66.75;100211.94;5058402;28;20099;-72
2022/03/12 03:54:20;;;;;;;9.27;3.40;;;;;;;9.72;66.07;100164.88;5049272;28;20084;-71
2022/03/12 03:56:47;;;;;;;9.13;2.73;;;;;;;10.01;66.38;100210.78;5044250;28;20107;-73
2022/03/12 03:59:14;;;;;;;4.70;2.83;;;;;;;10.13;65.90;100212.13;5046244;28;20451;-70
2022/03/12 04:01:41;;;;;;;3.07;2.00;;;;;;;9.99;66.12;100197.13;5053163;28;20102;-71
2022/03/12 04:04:12;;;;;;;12.30;3.00;;;;;;;10.11;66.12;100214.34;5040063;28;21534;-70
2022/03/12 04:06:40;;;;;;;22.63;3.97;;;;;;;9.97;66.66;100204.94;5040990;28;20445;-69
2022/03/12 04:09:08;;;;;;;5.80;2.07;;;;;;;9.81;66.96;100181.00;5048474;28;20343;-69
2022/03/12 04:11:35;;;;;;;10.13;3.30;;;;;;;9.75;67.08;100165.44;5038624;28;20068;-69
2022/03/12 04:14:04;;;;;;;9.50;3.70;;;;;;;9.69;66.83;100162.66;5042503;28;20049;-70
2022/03/12 04:16:31;;;;;;;16.05;3.20;;;;;;;10.06;66.60;100188.47;5043866;28;20428;-71
2022/03/12 04:18:58;;;;;;;4.87;3.27;;;;;;;10.01;66.81;100197.66;5049787;28;20063;-71
2022/03/12 04:21:25;;;;;;;4.17;2.00;;;;;;;9.76;66.66;100151.19;5051337;28;20079;-71
2022/03/12 04:23:52;;;;;;;7.47;2.73;;;;;;;9.99;66.84;100185.16;5024472;28;20081;-72
2022/03/12 04:26:19;;;;;;;2.47;1.53;;;;;;;10.12;66.71;100202.09;5041800;28;20162;-72
2022/03/12 04:28:46;;;;;;;7.67;2.80;;;;;;;10.07;66.63;100193.75;5046034;28;20095;-72
2022/03/12 04:31:14;;;;;;;4.03;2.40;;;;;;;10.11;66.37;100191.22;5047432;28;20114;-73
2022/03/12 04:33:41;;;;;;;7.90;2.63;;;;;;;9.45;66.52;100090.00;5048367;28;20041;-71
2022/03/12 04:36:12;;;;;;;10.43;2.27;;;;;;;10.11;66.47;100172.50;5045301;28;20084;-72
2022/03/12 04:38:40;;;;;;;6.53;2.67;;;;;;;10.18;66.57;100184.19;5050219;28;20053;-73
2022/03/12 04:41:08;;;;;;;3.60;1.67;;;;;;;10.14;66.90;100166.34;5044064;28;20132;-73
2022/03/12 04:43:35;;;;;;;4.93;1.20;;;;;;;10.18;66.62;100164.66;5052265;28;20106;-73
2022/03/12 04:46:02;;;;;;;6.37;2.30;;;;;;;10.00;66.85;100145.78;5031366;28;20505;-74
2022/03/12 04:48:30;;;;;;;4.43;1.50;;;;;;;10.07;66.72;100156.63;5047682;28;20508;-72
2022/03/12 04:50:57;;;;;;;8.00;2.27;;;;;;;10.09;67.07;100149.66;5048674;28;20072;-73
2022/03/12 04:53:26;;;;;;;11.20;3.67;;;;;;;10.09;66.96;100155.25;5044354;28;20052;-74
2022/03/12 04:55:53;;;;;;;14.37;2.40;;;;;;;9.43;67.06;100030.06;5054197;28;20087;-74
2022/03/12 04:58:20;;;;;;;4.83;2.13;;;;;;;9.73;66.98;100091.25;5053879;28;20571;-74
2022/03/12 05:00:47;;;;;;;12.93;2.80;;;;;;;9.51;66.75;100049.00;5051608;28;20044;-74
2022/03/12 05:03:22;;;;;;;4.07;1.10;;;;;;;10.07;66.80;100135.16;5051939;28;20049;-74
2022/03/12 05:05:51;;;;;;;8.80;2.13;;;;;;;10.19;67.04;100155.19;5043515;28;20100;-74
2022/03/12 05:08:20;;;;;;;2.03;1.70;;;;;;;10.29;66.73;100153.47;5050838;28;20065;-73
2022/03/12 05:10:51;;;;;;;6.57;1.97;;;;;;;10.36;66.33;100148.44;5052514;28;20049;-73
2022/03/12 05:13:23;;;;;;;6.70;2.00;;;;;;;10.32;66.93;100152.88;5038145;28;20080;-73
2022/03/12 05:15:53;;;;;;;5.90;1.60;;;;;;;10.34;66.67;100157.06;5047414;28;20069;-72
2022/03/12 05:18:23;;;;;;;4.17;2.03;;;;;;;10.42;66.51;100159.25;5049713;28;20055;-72
2022/03/12 05:20:51;;;;;;;6.23;1.37;;;;;;;9.78;66.30;100037.44;5051722;28;20048;-72
2022/03/12 05:23:19;;;;;;;7.57;2.37;;;;;;;10.42;66.30;100150.03;5040043;28;20076;-71
2022/03/12 05:25:48;;;;;;;4.70;1.53;;;;;;;10.53;66.32;100161.97;5051693;28;20057;-71
2022/03/12 05:28:22;;;;;;;6.53;2.80;;;;;;;10.52;66.31;100146.34;5053688;28;20064;-72
2022/03/12 05:30:51;;;;;;;2.43;1.30;;;;;;;10.61;65.86;100148.22;5044759;28;20523;-72
2022/03/12 05:33:19;;;;;;;13.37;8.67;;;;;;;10.52;66.09;100161.13;5039686;28;20076;-72
2022/03/12 05:35:48;;;;;;;11.77;9.03;;;;;;;10.62;66.00;100144.31;5047291;28;20071;-70
2022/03/12 05:38:15;;;;;;;11.75;9.90;;;;;;;10.15;66.39;100075.97;5040259;28;20118;-72
2022/03/12 05:40:46;;;;;;;11.60;10.40;;;;;;;10.50;67.86;100149.44;5042737;28;20049;-72
2022/03/12 05:43:15;;;;;;;12.57;11.30;;;;;;;9.92;68.60;100104.56;5049252;28;20053;-70
2022/03/12 05:45:48;;;;;;;13.57;12.57;;;;;;;10.29;68.58;100136.72;5051187;28;20515;-70
2022/03/12 05:48:16;;;;;;;14.90;13.43;;;;;;;9.86;69.97;100130.81;5042708;28;20071;-70
2022/03/12 05:50:46;;;;;;;13.73;10.70;;;;;;;10.26;69.16;100154.91;5041697;28;20080;-73
2022/03/12 05:53:18;;;;;;;9.77;9.15;;;;;;;10.12;70.01;100149.09;5037002;28;20080;-71
2022/03/12 05:55:47;;;;;;;12.10;10.90;;;;;;;10.06;69.92;100122.34;5052242;28;20083;-71
2022/03/12 05:58:17;;;;;;;14.05;10.63;;;;;;;10.06;70.15;100127.09;5051363;28;20080;-70
2022/03/12 06:00:46;;;;;;;11.47;10.20;;;;;;;10.12;70.57;100140.72;5047564;28;20045;-70
2022/03/12 06:03:13;;;;;;;11.40;10.67;;;;;;;10.24;70.04;100142.31;5044747;28;20049;-72
2022/03/12 06:05:42;;;;;;;11.93;11.13;;;;;;;10.01;70.41;100124.31;5050829;28;20049;-71
2022/03/12 06:08:20;;;;;;;12.13;10.87;;;;;;;10.17;70.71;100146.25;5050751;28;20041;-71
2022/03/12 06:10:51;;;;;;;11.17;10.67;;;;;;;10.17;70.87;100146.25;5036038;28;20111;-73
2022/03/12 06:13:27;;;;;;;10.93;10.23;;;;;;;10.36;70.57;100140.88;5045668;28;20115;-70
2022/03/12 06:16:00;;;;;;;11.73;11.07;;;;;;;10.37;71.00;100134.16;5036672;28;20072;-71
2022/03/12 06:18:29;;;;;;;14.03;13.23;;;;;;;10.20;71.27;100119.75;5063040;28;20106;-71
2022/03/12 06:20:56;;;;;;;14.70;13.47;;;;;;;10.36;71.24;100131.69;5069201;28;20075;-70
2022/03/12 06:23:23;;;;;;;15.63;13.50;;;;;;;10.15;72.07;100119.75;5068576;28;20095;-70
2022/03/12 06:25:52;;;;;;;14.77;13.70;;;;;;;9.78;72.87;100081.19;5050802;28;20049;-70
2022/03/12 06:28:20;;;;;;;13.70;12.70;;;;;;;10.16;72.88;100125.06;5046501;28;20075;-70
2022/03/12 06:30:48;;;;;;;11.90;11.13;;;;;;;9.66;72.71;100032.19;5040764;28;20085;-71
2022/03/12 06:33:18;;;;;;;12.37;11.60;;;;;;;10.39;72.28;100145.88;5042947;28;20056;-70
2022/03/12 06:35:46;;;;;;;12.00;11.30;;;;;;;10.52;72.21;100130.41;5049110;28;20069;-71
2022/03/12 06:38:17;;;;;;;11.23;10.53;;;;;;;10.48;72.18;100139.69;5042050;28;20083;-81
2022/03/12 06:40:44;;;;;;;9.30;8.70;;;;;;;10.35;72.39;100100.13;5042395;28;20512;-80
2022/03/12 06:43:19;;;;;;;8.97;8.47;;;;;;;10.27;71.91;100077.59;5044136;28;20095;-77
2022/03/12 06:45:47;;;;;;;10.20;8.77;;;;;;;10.78;71.40;100121.84;5043908;28;20083;-80
2022/03/12 06:48:16;;;;;;;9.33;8.63;;;;;;;10.50;70.87;100057.31;5045503;28;20045;-77
2022/03/12 06:50:43;;;;;;;9.10;8.60;;;;;;;10.63;71.33;100103.25;5039983;28;20060;-84
2022/03/12 06:53:10;;;;;;;9.70;8.80;;;;;;;11.00;70.94;100136.16;5041763;28;20084;-76
2022/03/12 06:55:37;;;;;;;10.83;8.00;;;;;;;11.10;70.78;100141.66;5046540;28;20519;-77
2022/03/12 06:58:04;;;;;;;15.83;8.90;;;;;;;11.02;70.60;100111.56;5051263;28;20041;-77
2022/03/12 07:00:31;;;;;;;8.73;8.13;;;;;;;11.23;70.63;100144.91;5042913;28;20053;-80
2022/03/12 07:02:59;;;;;;;9.13;8.33;;;;;;;11.34;70.43;100132.47;5044784;28;20053;-80
2022/03/12 07:05:27;;;;;;;9.60;8.63;;;;;;;11.35;70.51;100136.94;5063150;28;20048;-78
2022/03/12 07:07:55;;;;;;;10.90;8.13;;;;;;;11.55;70.01;100141.47;5054527;28;20566;-77
2022/03/12 07:10:22;;;;;;;11.03;9.83;;;;;;;11.35;70.18;100118.22;5020652;28;20084;-78
2022/03/12 07:12:50;;;;;;;12.77;9.27;;;;;;;11.55;70.27;100149.84;5057413;22;20049;-74
2022/03/12 07:15:18;;;;;;;12.10;9.37;;;;;;;11.58;70.25;100150.09;5039146;28;20060;-75
2022/03/12 07:17:45;;;;;;;9.83;9.03;;;;;;;11.49;70.47;100149.09;5027347;28;20564;-75
2022/03/12 07:20:14;;;;;;;9.77;9.07;;;;;;;11.53;70.72;100143.75;5026360;28;20084;-74
2022/03/12 07:22:42;;;;;;;12.50;11.27;;;;;;;11.37;71.20;100117.91;5029275;28;20073;-75
2022/03/12 07:25:11;;;;;;;12.83;11.97;;;;;;;11.29;71.71;100099.00;5033561;28;20535;-75
2022/03/12 07:27:39;;;;;;;11.53;10.83;;;;;;;11.21;72.71;100119.19;5038739;28;20160;-72
2022/03/12 07:30:08;;;;;;;11.40;10.70;;;;;;;11.10;72.85;100118.47;5036707;28;20042;-74
2022/03/12 07:32:36;;;;;;;14.70;11.55;;;;;;;11.17;73.16;100134.91;5023043;28;20058;-71
2022/03/12 07:35:04;;;;;;;12.43;11.43;;;;;;;11.06;74.05;100135.00;5032927;28;20080;-72
2022/03/12 07:37:31;;;;;;;22.10;15.17;;;;;;;10.86;75.27;100136.00;5029155;28;20476;-71
2022/03/12 07:39:59;;;;;;;19.40;18.00;;;;;;;10.72;75.83;100117.44;5040714;28;20072;-71
2022/03/12 07:42:25;;;;;;;4.87;1.43;;;;;;;10.60;76.18;100118.66;5035496;28;20080;-71
2022/03/12 07:44:53;;;;;;;1.47;1.03;;;;;;;10.56;77.44;100125.91;5036067;28;20471;-71
2022/03/12 07:47:20;;;;;;;25.23;23.63;;;;;;;10.26;79.12;100123.38;5018659;28;20052;-71
2022/03/12 07:49:47;;;;;;;27.63;25.03;;;;;;;10.26;79.13;100142.91;5020797;28;20128;-71
2022/03/12 07:52:15;;;;;;;25.60;23.90;;;;;;;10.38;79.18;100121.03;5033182;28;20049;-71
2022/03/12 07:54:47;;;;;;;24.30;22.73;;;;;;;10.39;79.20;100117.13;5030369;28;20053;-70
2022/03/12 07:57:15;;;;;;;22.33;21.03;;;;;;;10.21;79.89;100119.44;5003785;28;20458;-69
2022/03/12 07:59:42;;;;;;;19.50;17.83;;;;;;;10.31;80.48;100140.06;5016769;28;20133;-69
2022/03/12 08:02:09;;;;;;;16.60;15.57;;;;;;;10.28;80.50;100118.31;5030780;28;20124;-70
2022/03/12 08:04:36;;;;;;;15.40;14.37;;;;;;;10.27;80.66;100095.16;5030705;28;20060;-71
2022/03/12 08:07:04;;;;;;;14.23;13.50;;;;;;;10.37;80.71;100134.16;5047929;28;20055;-71
2022/03/12 08:09:32;;;;;;;15.60;14.10;;;;;;;10.43;80.54;100126.59;5029284;28;20370;-71
2022/03/12 08:12:00;;;;;;;13.40;12.60;;;;;;;10.43;80.83;100141.38;5026331;28;20552;-71
2022/03/12 08:14:28;;;;;;;13.33;12.17;;;;;;;10.37;80.34;100092.28;5025355;28;20492;-71
2022/03/12 08:16:55;;;;;;;15.17;14.17;;;;;;;10.54;80.65;100114.22;5030756;28;20539;-71
2022/03/12 08:19:22;;;;;;;14.20;13.03;;;;;;;10.41;80.79;100076.63;5026213;28;20053;-71
2022/03/12 08:21:51;;;;;;;10.87;6.67;;;;;;;10.51;81.31;100100.84;5029818;28;20472;-71
2022/03/12 08:24:19;;;;;;;14.83;13.67;;;;;;;10.58;81.33;100106.09;5023585;28;20444;-71
2022/03/12 08:26:48;;;;;;;15.23;13.87;;;;;;;10.82;80.96;100114.56;5031716;28;20049;-71
2022/03/12 08:29:18;;;;;;;17.50;16.35;;;;;;;10.77;81.08;100097.81;5028049;28;20092;-71
2022/03/12 08:31:45;;;;;;;15.80;14.02;;;;;;;10.96;80.77;100101.56;5026483;28;20053;-71
2022/03/12 08:34:14;;;;;;;11.63;10.87;;;;;;;10.98;80.27;100106.88;5025516;28;20073;-72
2022/03/12 08:36:42;;;;;;;12.87;9.73;;;;;;;11.09;79.94;100103.66;5031130;28;20064;-71
2022/03/12 08:39:11;;;;;;;13.67;10.97;;;;;;;11.28;79.32;100097.31;5030298;28;20053;-71
2022/03/12 08:41:38;;;;;;;9.63;9.10;;;;;;;11.14;79.31;100086.88;5022718;28;20096;-73
2022/03/12 08:44:06;;;;;;;10.23;9.70;;;;;;;11.24;79.06;100094.28;5031005;28;20480;-73
2022/03/12 08:46:35;;;;;;;13.73;12.70;;;;;;;11.08;79.23;100093.63;5028069;28;20148;-73
2022/03/12 08:49:05;;;;;;;20.00;18.57;;;;;;;11.02;80.03;100091.19;5030759;28;20049;-71
2022/03/12 08:51:32;;;;;;;17.67;16.67;;;;;;;10.70;80.71;100091.75;5028125;28;20132;-70
2022/03/12 08:54:01;;;;;;;20.53;18.60;;;;;;;10.70;80.85;100106.56;5027256;28;20085;-72
2022/03/12 08:56:28;;;;;;;19.97;18.63;;;;;;;10.68;81.18;100101.25;5026360;28;20142;-71
2022/03/12 08:58:55;;;;;;;19.83;18.53;;;;;;;10.61;81.94;100097.13;5029270;28;20497;-68
2022/03/12 09:01:22;;;;;;;21.87;19.27;;;;;;;10.58;82.09;100112.50;5026724;28;20059;-68
2022/03/12 09:03:53;;;;;;;18.67;17.63;;;;;;;10.67;82.50;100124.72;5021602;28;20133;-69
2022/03/12 09:06:20;;;;;;;18.50;17.20;;;;;;;10.72;82.30;100103.47;5022353;28;20057;-66
2022/03/12 09:08:47;;;;;;;17.10;15.90;;;;;;;10.72;82.33;100101.50;5027216;28;20052;-68
2022/03/12 09:11:19;;;;;;;15.27;14.37;;;;;;;10.84;82.64;100103.94;5032038;28;20137;-67
2022/03/12 09:13:46;;;;;;;16.17;14.93;;;;;;;10.88;82.81;100100.25;5028516;28;20119;-67
2022/03/12 09:16:18;;;;;;;16.30;14.87;;;;;;;10.97;82.45;100096.81;5020786;28;20089;-68
2022/03/12 09:18:45;;;;;;;17.13;15.30;;;;;;;10.80;83.02;100066.50;5024708;28;20100;-67
2022/03/12 09:21:12;;;;;;;14.30;13.40;;;;;;;10.87;83.40;100047.44;5030790;28;20469;-68
2022/03/12 09:23:39;;;;;;;14.97;13.87;;;;;;;10.97;83.34;100077.25;5022389;28;20045;-67
2022/03/12 09:26:06;;;;;;;13.40;12.47;;;;;;;10.79;83.15;100037.75;5027679;28;20131;-68
2022/03/12 09:28:34;;;;;;;14.93;13.63;;;;;;;11.02;83.46;100066.03;5029064;28;20107;-69
2022/03/12 09:31:01;;;;;;;13.83;12.93;;;;;;;11.08;83.07;100062.88;5027440;28;20136;-68
2022/03/12 09:33:28;;;;;;;13.13;12.43;;;;;;;11.03;83.63;100060.13;5022369;28;20050;-68
2022/03/12 09:35:55;;;;;;;19.97;13.10;;;;;;;11.13;83.57;100096.34;5015823;28;20133;-68
2022/03/12 09:38:22;;;;;;;12.83;11.93;;;;;;;11.05;83.32;100073.81;5020246;28;20077;-69
2022/03/12 09:40:49;;;;;;;13.33;12.17;;;;;;;11.05;83.05;100097.00;5020798;28;20100;-68
2022/03/12 09:43:16;;;;;;;13.00;11.97;;;;;;;11.01;83.24;100078.31;5025849;28;20160;-68
2022/03/12 09:45:43;;;;;;;14.30;13.20;;;;;;;11.21;82.88;100096.84;5026623;28;20564;-68
2022/03/12 09:48:14;;;;;;;12.63;11.63;;;;;;;11.05;82.30;100063.47;5022515;28;20136;-68
2022/03/12 09:50:41;;;;;;;13.10;11.87;;;;;;;11.31;81.79;100077.97;5028171;28;20049;-69
2022/03/12 09:53:08;;;;;;;14.20;12.70;;;;;;;11.51;81.75;100127.25;5031176;28;20124;-69
2022/03/12 09:55:35;;;;;;;19.30;17.73;;;;;;;11.27;82.65;100107.66;5029447;28;20141;-69
2022/03/12 09:58:02;;;;;;;18.87;17.57;;;;;;;11.26;82.39;100082.81;5042458;28;20128;-68
2022/03/12 10:00:29;;;;;;;22.97;21.30;;;;;;;10.98;83.39;100071.38;5024680;28;20140;-68
2022/03/12 10:02:57;;;;;;;23.93;22.50;;;;;;;10.96;83.63;100079.22;5031605;28;20162;-68
2022/03/12 10:05:24;;;;;;;27.93;26.23;;;;;;;10.93;84.13;100084.56;5030347;28;20068;-68
2022/03/12 10:07:51;;;;;;;28.63;26.63;;;;;;;10.75;84.50;100063.78;5027768;28;20136;-68
2022/03/12 10:10:22;;;;;;;29.47;27.30;;;;;;;10.89;84.75;100085.13;5031037;28;20073;-68
2022/03/12 10:12:50;;;;;;;31.03;28.83;;;;;;;10.65;85.12;100064.72;5029401;28;20148;-66
2022/03/12 10:15:19;;;;;;;31.57;28.97;;;;;;;10.77;85.52;100075.47;5025478;28;20504;-66
2022/03/12 10:17:47;;;;;;;28.33;26.63;;;;;;;10.55;85.37;100048.88;5031196;28;20073;-66
2022/03/12 10:20:15;;;;;;;29.17;27.17;;;;;;;10.63;85.68;100078.97;5031398;28;20149;-67
2022/03/12 10:22:45;;;;;;;29.33;27.53;;;;;;;10.81;84.82;100060.66;5030714;28;20119;-67
2022/03/12 10:25:13;;;;;;;34.90;33.00;;;;;;;10.94;85.03;100098.25;5027872;28;20138;-67
2022/03/12 10:27:41;;;;;;;26.77;25.17;;;;;;;10.96;85.05;100090.38;5030781;28;20334;-66
2022/03/12 10:30:10;;;;;;;27.17;25.43;;;;;;;10.96;85.31;100084.81;5031163;28;20568;-67
2022/03/12 10:32:44;;;;;;;26.57;25.07;;;;;;;10.45;85.72;100007.09;5028045;28;20058;-67
2022/03/12 10:35:18;;;;;;;4.20;3.27;;;;;;;10.72;86.06;100056.81;5029095;28;20080;-67
2022/03/12 10:37:47;;;;;;;6.30;1.83;;;;;;;10.84;86.02;100059.25;5031000;28;20080;-67
2022/03/12 10:40:20;;;;;;;25.27;23.67;;;;;;;10.89;85.93;100028.44;5028988;28;20050;-68
2022/03/12 10:42:49;;;;;;;24.13;22.07;;;;;;;10.98;85.62;100048.19;5027883;28;20081;-68
2022/03/12 10:45:21;;;;;;;18.90;17.97;;;;;;;10.90;85.79;100046.88;5023600;28;20069;-67
2022/03/12 10:47:54;;;;;;;15.27;14.47;;;;;;;10.63;85.75;99972.88;5028967;28;20073;-66
2022/03/12 10:50:27;;;;;;;13.83;12.97;;;;;;;11.05;85.52;100032.75;5026870;28;20132;-67
2022/03/12 10:52:57;;;;;;;10.87;10.37;;;;;;;11.26;85.01;100010.16;5031246;28;20060;-67
2022/03/12 10:55:29;;;;;;;10.55;9.98;;;;;;;11.33;84.57;100027.38;5028849;28;20081;-67
2022/03/12 10:58:01;;;;;;;11.20;10.30;;;;;;;11.46;84.43;99995.91;5028394;28;20136;-67
2022/03/12 11:00:32;;;;;;;11.30;10.50;;;;;;;11.58;84.16;100007.47;5029205;28;20111;-67
2022/03/12 11:03:03;;;;;;;11.00;10.30;;;;;;;11.77;83.91;100029.88;5027617;28;20045;-66
2022/03/12 11:05:35;;;;;;;10.65;10.10;;;;;;;11.72;83.45;99989.94;5030517;28;20115;-68
2022/03/12 11:08:17;;;;;;;13.93;12.53;;;;;;;11.70;83.59;99981.03;5030899;28;20041;-67
2022/03/12 11:10:52;;;;;;;13.10;12.17;;;;;;;11.70;83.75;99975.44;5030294;28;20463;-67
2022/03/12 11:13:47;;;;;;;14.43;13.70;;;;;;;11.62;84.33;99994.56;5028515;28;20428;-67
2022/03/12 11:16:16;;;;;;;15.00;14.07;;;;;;;11.67;84.51;100013.22;5022973;28;20096;-66
2022/03/12 11:18:52;;;;;;;14.77;13.70;;;;;;;11.71;84.52;99982.69;5022597;28;20092;-68
2022/03/12 11:21:41;;;;;;;4.17;2.00;;;;;;;11.68;84.69;99988.88;5029555;28;20076;-67
2022/03/12 11:24:16;;;;;;;14.07;13.17;;;;;;;11.70;84.67;99992.22;5027330;28;20046;-66
2022/03/12 11:26:45;;;;;;;12.97;12.37;;;;;;;11.72;84.58;99984.34;5037480;28;20675;-67